createdAt,value
2023-04-01T00:03:57.942Z,99187.78
2023-04-01T00:09:01.092Z,99193.97
2023-04-01T00:14:02.826Z,99192.13
2023-04-01T00:19:04.813Z,99192.03
2023-04-01T00:24:08.346Z,99186.81
2023-04-01T00:29:10.651Z,99192.97
2023-04-01T00:34:13.466Z,99192.78
2023-04-01T00:39:16.512Z,99188.53
2023-04-01T00:44:21.942Z,99196.53
2023-04-01T00:49:28.028Z,99192.16
2023-04-01T00:54:32.492Z,99194.81
2023-04-01T00:59:39.575Z,99198.31
2023-04-01T01:04:41.732Z,99195.72
2023-04-01T01:09:56.310Z,99191.53
2023-04-01T01:15:07.245Z,99201.91
2023-04-01T01:20:36.537Z,99200.28
2023-04-01T01:25:46.790Z,99197.69
2023-04-01T01:30:58.050Z,99198.56
2023-04-01T01:36:06.186Z,99197.88
2023-04-01T01:41:10.337Z,99199.47
2023-04-01T01:46:14.173Z,99203.75
2023-04-01T01:51:18.265Z,99201.91
2023-04-01T01:56:24.191Z,99204.56
2023-04-01T02:01:29.410Z,99206.41
2023-04-01T02:06:38.151Z,99208.06
2023-04-01T02:11:46.792Z,99207.22
2023-04-01T02:16:54.827Z,99201.91
2023-04-01T02:22:00.623Z,99201.84
2023-04-01T02:27:03.075Z,99205.31
2023-04-01T02:32:06.798Z,99211.59
2023-04-01T02:37:14.010Z,99220.25
2023-04-01T02:42:15.669Z,99223.00
2023-04-01T02:47:17.367Z,99225.66
2023-04-01T02:52:20.984Z,99230.94
2023-04-01T02:57:23.098Z,99231.84
2023-04-01T03:02:25.373Z,99238.00
2023-04-01T03:07:28.856Z,99230.13
2023-04-01T03:12:30.850Z,99237.16
2023-04-01T03:17:32.689Z,99230.16
2023-04-01T03:22:35.882Z,99239.03
2023-04-01T03:27:37.957Z,99243.56
2023-04-01T03:32:40.336Z,99246.31
2023-04-01T03:37:44.085Z,99245.44
2023-04-01T03:42:46.331Z,99241.13
2023-04-01T03:47:48.352Z,99250.06
2023-04-01T03:52:51.897Z,99253.66
2023-04-01T03:57:54.059Z,99265.03
2023-04-01T04:02:56.234Z,99264.28
2023-04-01T04:07:59.373Z,99273.91
2023-04-01T04:13:01.036Z,99270.22
2023-04-01T04:18:02.822Z,99273.56
2023-04-01T04:23:06.087Z,99277.03
2023-04-01T04:28:08.109Z,99281.38
2023-04-01T04:33:10.351Z,99280.47
2023-04-01T04:38:13.885Z,99285.75
2023-04-01T04:43:17.930Z,99282.16
2023-04-01T04:48:20.575Z,99288.34
2023-04-01T04:53:24.179Z,99290.88
2023-04-01T04:58:25.988Z,99293.44
2023-04-01T05:03:31.518Z,99301.28
2023-04-01T05:08:35.279Z,99302.00
2023-04-01T05:13:37.078Z,99309.06
2023-04-01T05:18:39.141Z,99300.03
2023-04-01T05:23:42.503Z,99306.78
2023-04-01T05:28:44.758Z,99308.13
2023-04-01T05:33:47.091Z,99313.19
2023-04-01T05:38:50.772Z,99308.38
2023-04-01T05:43:52.737Z,99321.63
2023-04-01T05:48:54.532Z,99315.38
2023-04-01T05:53:57.665Z,99325.59
2023-04-01T05:58:59.564Z,99328.00
2023-04-01T06:04:01.858Z,99334.75
2023-04-01T06:09:14.042Z,99340.41
2023-04-01T06:14:27.788Z,99349.69
2023-04-01T06:19:37.421Z,99345.97
2023-04-01T06:24:54.659Z,99364.31
2023-04-01T06:30:09.014Z,99368.00
2023-04-01T06:35:30.624Z,99365.66
2023-04-01T06:40:56.643Z,99365.84
2023-04-01T06:46:05.812Z,99371.38
2023-04-01T06:51:18.099Z,99374.41
2023-04-01T06:56:25.037Z,99377.56
2023-04-01T07:01:33.814Z,99383.50
2023-04-01T07:06:38.847Z,99383.94
2023-04-01T07:11:42.411Z,99387.31
2023-04-01T07:16:49.399Z,99385.47
2023-04-01T07:21:56.351Z,99390.38
2023-04-01T07:27:00.120Z,99392.38
2023-04-01T07:32:20.070Z,99399.34
2023-04-01T07:37:30.002Z,99400.22
2023-04-01T07:42:44.472Z,99403.03
2023-04-01T07:48:00.054Z,99407.75
2023-04-01T07:53:13.538Z,99407.81
2023-04-01T07:58:24.676Z,99416.53
2023-04-01T08:03:39.434Z,99419.47
2023-04-01T08:08:52.622Z,99428.38
2023-04-01T08:14:05.295Z,99429.31
2023-04-01T08:19:22.150Z,99434.38
2023-04-01T08:24:44.429Z,99439.78
2023-04-01T08:29:56.695Z,99444.13
2023-04-01T08:35:11.089Z,99442.66
2023-04-01T08:40:33.310Z,99440.59
2023-04-01T08:45:57.664Z,99441.41
2023-04-01T08:51:32.854Z,99449.53
2023-04-01T08:56:41.144Z,99449.69
2023-04-01T09:02:14.600Z,99455.50
2023-04-01T09:07:35.549Z,99451.00
2023-04-01T09:12:53.756Z,99447.41
2023-04-01T09:18:16.637Z,99455.72
2023-04-01T09:23:37.153Z,99456.59
2023-04-01T09:28:46.258Z,99466.41
2023-04-01T09:34:13.628Z,99468.38
2023-04-01T09:39:37.315Z,99466.94
2023-04-01T09:44:48.062Z,99476.47
2023-04-01T09:50:28.632Z,99475.72
2023-04-01T09:55:58.693Z,99483.47
2023-04-01T10:01:37.810Z,99486.13
2023-04-01T10:07:22.337Z,99496.81
2023-04-01T10:13:05.396Z,99494.00
2023-04-01T10:18:51.704Z,99502.28
2023-04-01T10:24:10.938Z,99508.97
2023-04-01T10:29:47.057Z,99509.94
2023-04-01T10:35:25.024Z,99517.47
2023-04-01T10:40:49.016Z,99535.22
2023-04-01T10:46:30.568Z,99538.97
2023-04-01T10:52:04.265Z,99539.03
2023-04-01T10:57:24.835Z,99532.38
2023-04-01T11:03:00.112Z,99533.59
2023-04-01T11:08:36.382Z,99545.53
2023-04-01T11:14:11.300Z,99545.44
2023-04-01T11:19:55.251Z,99554.69
2023-04-01T11:25:23.746Z,99557.97
2023-04-01T11:30:35.098Z,99549.50
2023-04-01T11:36:05.096Z,99555.72
2023-04-01T11:41:23.989Z,99556.78
2023-04-01T11:46:33.319Z,99577.38
2023-04-01T11:51:56.910Z,99576.94
2023-04-01T11:57:14.032Z,99580.47
2023-04-01T12:02:25.374Z,99592.34
2023-04-01T12:07:44.789Z,99599.72
2023-04-01T12:13:01.559Z,99615.19
2023-04-01T12:18:13.841Z,99612.84
2023-04-01T12:23:37.050Z,99616.25
2023-04-01T12:28:53.321Z,99629.88
2023-04-01T12:34:13.820Z,99632.41
2023-04-01T12:39:40.179Z,99645.78
2023-04-01T12:45:10.138Z,99643.88
2023-04-01T12:50:35.489Z,99658.19
2023-04-01T12:55:40.280Z,99667.31
2023-04-01T13:01:03.051Z,99667.97
2023-04-01T13:06:37.545Z,99670.53
2023-04-01T13:11:52.913Z,99684.28
2023-04-01T13:17:03.232Z,99692.44
2023-04-01T13:22:13.580Z,99691.78
2023-04-01T13:27:19.616Z,99700.81
2023-04-01T13:32:43.275Z,99696.19
2023-04-01T13:38:07.413Z,99709.25
2023-04-01T13:43:16.290Z,99712.06
2023-04-01T13:48:51.276Z,99719.41
2023-04-01T13:54:31.900Z,99724.97
2023-04-01T13:59:54.548Z,99730.41
2023-04-01T14:05:13.717Z,99744.53
2023-04-01T14:10:26.241Z,99733.88
2023-04-01T14:15:42.688Z,99755.91
2023-04-01T14:20:53.426Z,99763.88
2023-04-01T14:26:24.112Z,99781.00
2023-04-01T14:31:39.402Z,99782.09
2023-04-01T14:37:00.096Z,99780.16
2023-04-01T14:42:22.324Z,99784.19
2023-04-01T14:47:42.992Z,99796.75
2023-04-01T14:52:56.504Z,99809.91
2023-04-01T14:58:10.843Z,99818.78
2023-04-01T15:03:26.534Z,99816.28
2023-04-01T15:08:33.699Z,99830.22
2023-04-01T15:13:55.156Z,99834.13
2023-04-01T15:19:06.428Z,99837.81
2023-04-01T15:24:21.249Z,99848.34
2023-04-01T15:29:44.765Z,99850.88
2023-04-01T15:34:55.032Z,99836.81
2023-04-01T15:40:03.204Z,99858.06
2023-04-01T15:45:17.817Z,99868.78
2023-04-01T15:50:35.518Z,99868.88
2023-04-01T15:55:43.730Z,99893.59
2023-04-01T16:00:52.257Z,99888.34
2023-04-01T16:06:11.323Z,99897.16
2023-04-01T16:11:23.540Z,99907.72
2023-04-01T16:16:36.673Z,99920.06
2023-04-01T16:21:46.527Z,99921.94
2023-04-01T16:26:56.053Z,99920.38
2023-04-01T16:32:10.997Z,99930.91
2023-04-01T16:37:16.926Z,99937.97
2023-04-01T16:42:32.305Z,99944.13
2023-04-01T16:47:41.114Z,99963.50
2023-04-01T16:52:58.936Z,99970.53
2023-04-01T16:58:03.049Z,99980.22
2023-04-01T17:03:13.095Z,99989.06
2023-04-01T17:08:24.798Z,99996.16
2023-04-01T17:13:50.805Z,100014.63
2023-04-01T17:19:02.928Z,100031.38
2023-04-01T17:24:15.728Z,100041.03
2023-04-01T17:29:27.835Z,100044.59
2023-04-01T17:34:44.023Z,100060.38
2023-04-01T17:39:56.946Z,100061.28
2023-04-01T17:45:06.594Z,100075.34
2023-04-01T17:50:21.409Z,100083.25
2023-04-01T17:55:41.370Z,100088.53
2023-04-01T18:00:58.376Z,100098.19
2023-04-01T18:06:08.990Z,100114.88
2023-04-01T18:11:25.552Z,100121.91
2023-04-01T18:16:52.594Z,100135.97
2023-04-01T18:21:57.709Z,100151.75
2023-04-01T18:27:04.931Z,100162.28
2023-04-01T18:32:24.388Z,100169.31
2023-04-01T18:37:31.359Z,100175.41
2023-04-01T18:42:45.877Z,100196.47
2023-04-01T18:48:01.332Z,100201.72
2023-04-01T18:53:15.391Z,100214.00
2023-04-01T18:58:27.622Z,100228.03
2023-04-01T19:03:42.262Z,100237.66
2023-04-01T19:08:45.965Z,100245.56
2023-04-01T19:13:58.084Z,100238.53
2023-04-01T19:19:14.255Z,100259.56
2023-04-01T19:24:39.763Z,100263.09
2023-04-01T19:29:57.424Z,100263.94
2023-04-01T19:35:17.153Z,100281.47
2023-04-01T19:40:38.308Z,100278.81
2023-04-01T19:45:44.236Z,100291.97
2023-04-01T19:50:52.175Z,100294.59
2023-04-01T19:56:04.767Z,100316.50
2023-04-01T20:01:11.039Z,100317.34
2023-04-01T20:06:22.942Z,100334.84
2023-04-01T20:11:38.670Z,100348.84
2023-04-01T20:16:54.164Z,100351.47
2023-04-01T20:22:00.514Z,100362.84
2023-04-01T20:27:08.629Z,100365.41
2023-04-01T20:32:22.921Z,100372.41
2023-04-01T20:37:38.814Z,100383.75
2023-04-01T20:42:56.807Z,100402.19
2023-04-01T20:48:17.924Z,100404.78
2023-04-01T20:53:30.474Z,100416.25
2023-04-01T20:58:40.509Z,100421.47
2023-04-01T21:03:50.157Z,100424.91
2023-04-01T21:09:16.260Z,100437.13
2023-04-01T21:14:41.644Z,100438.81
2023-04-01T21:20:03.597Z,100461.53
2023-04-01T21:25:23.278Z,100461.53
2023-04-01T21:30:41.063Z,100475.50
2023-04-01T21:35:54.150Z,100488.50
2023-04-01T21:41:31.079Z,100499.81
2023-04-01T21:47:05.909Z,100502.38
2023-04-01T21:52:47.341Z,100500.59
2023-04-01T21:58:18.679Z,100515.41
2023-04-01T22:03:48.904Z,100524.06
2023-04-01T22:09:04.281Z,100537.22
2023-04-01T22:14:12.708Z,100541.53
2023-04-01T22:19:21.294Z,100552.84
2023-04-01T22:24:31.654Z,100557.16
2023-04-01T22:29:42.962Z,100557.84
2023-04-01T22:34:50.909Z,100578.03
2023-04-01T22:40:09.818Z,100575.28
2023-04-01T22:45:31.467Z,100585.81
2023-04-01T22:50:38.123Z,100590.22
2023-04-01T22:55:53.585Z,100608.53
2023-04-01T23:01:01.164Z,100616.34
2023-04-01T23:06:05.161Z,100611.16
2023-04-01T23:11:09.885Z,100629.63
2023-04-01T23:16:14.000Z,100626.97
2023-04-01T23:21:25.161Z,100641.78
2023-04-01T23:26:33.880Z,100649.59
2023-04-01T23:31:39.653Z,100665.44
2023-04-01T23:36:44.895Z,100668.03
2023-04-01T23:41:47.116Z,100661.88
2023-04-01T23:46:52.473Z,100667.03
2023-04-01T23:51:57.681Z,100678.41
2023-04-01T23:57:00.263Z,100688.06
